createdAt,value
2023-11-13T00:03:05.074Z,5.52
2023-11-13T00:06:14.466Z,5.67
2023-11-13T00:09:25.272Z,5.64
2023-11-13T00:12:35.672Z,5.65
2023-11-13T00:15:44.387Z,5.78
2023-11-13T00:18:53.754Z,5.85
2023-11-13T00:22:03.441Z,5.93
2023-11-13T00:25:13.685Z,5.97
2023-11-13T00:28:22.671Z,6.01
2023-11-13T00:31:31.450Z,6.07
2023-11-13T00:34:40.104Z,6.16
2023-11-13T00:37:48.629Z,6.15
2023-11-13T00:41:03.086Z,6.35
2023-11-13T00:44:12.069Z,6.35
2023-11-13T00:47:20.669Z,6.36
2023-11-13T00:50:29.456Z,6.33
2023-11-13T00:53:40.254Z,6.41
2023-11-13T00:56:50.527Z,6.46
2023-11-13T01:00:04.369Z,6.38
2023-11-13T01:03:13.246Z,6.59
2023-11-13T01:06:22.016Z,6.53
2023-11-13T01:09:30.616Z,6.46
2023-11-13T01:12:41.082Z,6.51
2023-11-13T01:15:50.429Z,6.53
2023-11-13T01:18:59.204Z,6.54
2023-11-13T01:22:08.248Z,6.55
2023-11-13T01:25:16.934Z,6.58
2023-11-13T01:28:27.455Z,6.71
2023-11-13T01:31:36.132Z,6.62
2023-11-13T01:34:45.209Z,6.63
2023-11-13T01:37:53.853Z,6.62
2023-11-13T01:41:02.611Z,6.63
2023-11-13T01:44:12.521Z,6.64
2023-11-13T01:47:21.186Z,6.61
2023-11-13T01:50:29.933Z,6.62
2023-11-13T01:53:39.535Z,6.64
2023-11-13T01:56:48.956Z,6.67
2023-11-13T02:00:01.029Z,6.68
2023-11-13T02:03:10.811Z,6.69
2023-11-13T02:06:19.461Z,6.69
2023-11-13T02:09:28.434Z,6.68
2023-11-13T02:12:38.234Z,6.67
2023-11-13T02:15:49.968Z,6.80
2023-11-13T02:18:58.982Z,6.69
2023-11-13T02:22:08.121Z,6.62
2023-11-13T02:25:23.845Z,6.65
2023-11-13T02:28:32.464Z,6.63
2023-11-13T02:31:52.750Z,6.62
2023-11-13T02:35:02.283Z,6.64
2023-11-13T02:38:11.908Z,6.65
2023-11-13T02:41:22.880Z,6.69
2023-11-13T02:44:31.500Z,6.73
2023-11-13T02:47:40.251Z,6.73
2023-11-13T02:50:52.519Z,6.76
2023-11-13T02:54:05.668Z,6.75
2023-11-13T02:57:15.583Z,6.75
2023-11-13T03:00:24.472Z,6.83
2023-11-13T03:03:33.080Z,6.91
2023-11-13T03:06:42.087Z,6.80
2023-11-13T03:09:52.123Z,6.97
2023-11-13T03:13:02.177Z,6.85
2023-11-13T03:16:14.403Z,7.00
2023-11-13T03:19:23.317Z,7.03
2023-11-13T03:22:31.958Z,7.16
2023-11-13T03:25:40.782Z,7.19
2023-11-13T03:28:51.525Z,7.27
2023-11-13T03:32:00.414Z,7.25
2023-11-13T03:35:09.495Z,7.32
2023-11-13T03:38:19.584Z,7.33
2023-11-13T03:41:28.281Z,7.48
2023-11-13T03:44:38.300Z,7.39
2023-11-13T03:47:46.928Z,7.40
2023-11-13T03:50:55.681Z,7.43
2023-11-13T03:54:05.129Z,7.44
2023-11-13T03:57:13.977Z,7.49
2023-11-13T04:00:24.965Z,7.51
2023-11-13T04:03:33.540Z,7.56
2023-11-13T04:06:42.665Z,7.56
2023-11-13T04:09:51.454Z,7.58
2023-11-13T04:13:00.266Z,7.72
2023-11-13T04:16:10.602Z,7.66
2023-11-13T04:19:19.288Z,7.68
2023-11-13T04:22:29.043Z,7.67
2023-11-13T04:25:37.636Z,7.72
2023-11-13T04:28:46.278Z,7.76
2023-11-13T04:31:56.188Z,7.83
2023-11-13T04:35:05.167Z,7.91
2023-11-13T04:38:13.686Z,7.93
2023-11-13T04:41:22.303Z,7.90
2023-11-13T04:44:30.868Z,8.04
2023-11-13T04:47:40.842Z,8.07
2023-11-13T04:50:49.594Z,8.09
2023-11-13T04:53:58.688Z,8.18
2023-11-13T04:57:07.477Z,8.21
2023-11-13T05:00:16.976Z,8.33
2023-11-13T05:03:26.845Z,8.39
2023-11-13T05:06:36.319Z,8.56
2023-11-13T05:09:46.878Z,8.52
2023-11-13T05:13:01.543Z,8.63
2023-11-13T05:16:10.253Z,8.70
2023-11-13T05:19:21.091Z,8.89
2023-11-13T05:22:29.728Z,8.91
2023-11-13T05:25:38.542Z,9.00
2023-11-13T05:28:47.502Z,9.04
2023-11-13T05:31:58.650Z,9.13
2023-11-13T05:35:09.349Z,9.16
2023-11-13T05:38:18.204Z,9.23
2023-11-13T05:41:27.142Z,9.35
2023-11-13T05:44:38.242Z,9.34
2023-11-13T05:47:47.855Z,9.36
2023-11-13T05:50:58.278Z,9.41
2023-11-13T05:54:07.981Z,9.46
2023-11-13T05:57:16.718Z,9.49
2023-11-13T06:00:25.551Z,9.39
2023-11-13T06:03:34.399Z,9.43
2023-11-13T06:06:47.200Z,9.57
2023-11-13T06:09:56.861Z,9.60
2023-11-13T06:13:07.719Z,9.57
2023-11-13T06:16:18.137Z,9.55
2023-11-13T06:19:27.040Z,9.66
2023-11-13T06:22:37.100Z,9.63
2023-11-13T06:25:47.061Z,9.69
2023-11-13T06:28:55.832Z,9.82
2023-11-13T06:32:04.890Z,9.81
2023-11-13T06:35:14.000Z,9.81
2023-11-13T06:38:24.708Z,9.75
2023-11-13T06:41:33.645Z,9.80
2023-11-13T06:44:42.771Z,9.80
2023-11-13T06:47:52.746Z,9.81
2023-11-13T06:51:02.392Z,9.83
2023-11-13T06:54:12.631Z,9.77
2023-11-13T06:57:22.080Z,9.81
2023-11-13T07:00:31.233Z,9.77
2023-11-13T07:03:39.978Z,9.90
2023-11-13T07:06:49.407Z,9.90
2023-11-13T07:10:02.528Z,9.89
2023-11-13T07:13:12.577Z,9.93
2023-11-13T07:16:22.096Z,9.94
2023-11-13T07:19:35.743Z,10.01
2023-11-13T07:22:45.076Z,10.06
2023-11-13T07:25:55.998Z,10.04
2023-11-13T07:29:05.510Z,10.09
2023-11-13T07:32:14.258Z,10.16
2023-11-13T07:35:23.373Z,10.11
2023-11-13T07:38:32.388Z,10.17
2023-11-13T07:41:42.487Z,10.14
2023-11-13T07:44:53.560Z,10.21
2023-11-13T07:48:02.993Z,10.14
2023-11-13T07:51:11.759Z,10.19
2023-11-13T07:54:20.461Z,10.15
2023-11-13T07:57:30.385Z,10.18
2023-11-13T08:00:38.903Z,10.08
2023-11-13T08:03:48.936Z,10.06
2023-11-13T08:06:57.650Z,10.04
2023-11-13T08:10:10.009Z,10.07
2023-11-13T08:13:20.514Z,10.07
2023-11-13T08:16:29.474Z,10.17
2023-11-13T08:19:39.277Z,10.14
2023-11-13T08:22:49.538Z,10.24
2023-11-13T08:26:01.309Z,10.17
2023-11-13T08:29:12.882Z,10.22
2023-11-13T08:32:21.744Z,10.13
2023-11-13T08:35:32.298Z,10.08
2023-11-13T08:38:40.923Z,10.11
2023-11-13T08:41:49.505Z,10.08
2023-11-13T08:45:02.187Z,10.09
2023-11-13T08:48:12.104Z,10.04
2023-11-13T08:51:25.461Z,9.97
2023-11-13T08:54:34.034Z,9.92
2023-11-13T08:57:46.142Z,9.80
2023-11-13T09:00:56.041Z,9.85
2023-11-13T09:04:08.011Z,9.90
2023-11-13T09:07:18.508Z,9.96
2023-11-13T09:10:29.073Z,9.97
2023-11-13T09:13:38.126Z,10.01
2023-11-13T09:16:49.016Z,10.07
2023-11-13T09:19:57.635Z,10.08
2023-11-13T09:23:06.415Z,10.06
2023-11-13T09:26:15.023Z,10.06
2023-11-13T09:29:24.209Z,10.11
2023-11-13T09:32:34.158Z,10.07
2023-11-13T09:35:42.685Z,10.07
2023-11-13T09:38:54.821Z,10.03
2023-11-13T09:42:06.126Z,10.00
2023-11-13T09:45:16.566Z,9.84
2023-11-13T09:48:31.629Z,9.84
2023-11-13T09:51:42.200Z,9.83
2023-11-13T09:54:50.953Z,9.74
2023-11-13T09:58:02.241Z,9.75
2023-11-13T10:01:15.267Z,9.93
2023-11-13T10:04:25.675Z,9.79
2023-11-13T10:07:34.370Z,9.74
2023-11-13T10:10:44.101Z,9.61
2023-11-13T10:13:53.234Z,9.47
2023-11-13T10:17:02.658Z,9.61
2023-11-13T10:20:18.229Z,9.69
2023-11-13T10:23:36.071Z,9.73
2023-11-13T10:26:49.614Z,9.72
2023-11-13T10:30:05.325Z,9.60
2023-11-13T10:33:16.904Z,9.67
2023-11-13T10:36:29.412Z,9.66
2023-11-13T10:39:42.441Z,9.67
2023-11-13T10:42:51.872Z,9.61
2023-11-13T10:46:01.607Z,9.75
2023-11-13T10:49:13.390Z,9.65
2023-11-13T10:52:24.289Z,9.67
2023-11-13T10:55:33.793Z,9.77
2023-11-13T10:58:43.337Z,9.80
2023-11-13T11:01:57.150Z,9.92
2023-11-13T11:05:12.257Z,9.90
2023-11-13T11:08:23.057Z,10.01
2023-11-13T11:11:35.598Z,10.09
2023-11-13T11:14:52.387Z,10.09
2023-11-13T11:18:10.962Z,10.18
2023-11-13T11:21:36.850Z,10.30
2023-11-13T11:25:17.923Z,10.28
2023-11-13T11:28:49.271Z,10.29
2023-11-13T11:31:57.836Z,10.26
2023-11-13T11:35:07.541Z,10.16
2023-11-13T11:38:22.072Z,10.18
2023-11-13T11:41:45.021Z,10.16
2023-11-13T11:45:03.495Z,10.35
2023-11-13T11:48:13.200Z,10.43
2023-11-13T11:51:25.391Z,10.54
2023-11-13T11:54:35.558Z,10.61
2023-11-13T11:57:49.447Z,10.63
2023-11-13T12:00:58.373Z,10.66
2023-11-13T12:04:07.890Z,10.71
2023-11-13T12:07:17.177Z,10.72
2023-11-13T12:10:27.117Z,10.69
2023-11-13T12:13:37.003Z,10.86
2023-11-13T12:16:45.952Z,10.88
2023-11-13T12:20:03.548Z,10.93
2023-11-13T12:23:18.883Z,11.02
2023-11-13T12:26:27.499Z,11.03
2023-11-13T12:29:38.446Z,11.12
2023-11-13T12:32:47.916Z,11.18
2023-11-13T12:35:59.882Z,11.21
2023-11-13T12:39:08.609Z,11.32
2023-11-13T12:42:17.965Z,11.35
2023-11-13T12:45:28.311Z,11.48
2023-11-13T12:48:38.027Z,11.59
2023-11-13T12:51:49.071Z,11.60
2023-11-13T12:54:58.258Z,11.54
2023-11-13T12:58:07.907Z,11.51
2023-11-13T13:01:19.421Z,11.45
2023-11-13T13:04:29.300Z,11.36
2023-11-13T13:07:40.209Z,11.34
2023-11-13T13:10:52.416Z,11.32
2023-11-13T13:14:02.984Z,11.29
2023-11-13T13:17:16.552Z,11.27
2023-11-13T13:20:31.805Z,11.28
2023-11-13T13:23:42.086Z,11.28
2023-11-13T13:26:50.645Z,11.36
2023-11-13T13:29:59.257Z,11.37
2023-11-13T13:33:12.638Z,11.31
2023-11-13T13:36:21.950Z,11.33
2023-11-13T13:39:32.771Z,11.40
2023-11-13T13:42:42.641Z,11.31
2023-11-13T13:45:54.933Z,11.44
2023-11-13T13:49:06.609Z,11.43
2023-11-13T13:52:16.977Z,11.38
2023-11-13T13:55:29.042Z,11.40
2023-11-13T13:58:39.316Z,11.40
2023-11-13T14:01:49.367Z,11.34
2023-11-13T14:04:59.950Z,11.25
2023-11-13T14:08:16.463Z,11.30
2023-11-13T14:11:32.823Z,11.33
2023-11-13T14:14:48.644Z,11.32
2023-11-13T14:17:57.207Z,11.23
2023-11-13T14:21:10.628Z,11.29
2023-11-13T14:24:21.916Z,11.27
2023-11-13T14:27:31.160Z,11.29
2023-11-13T14:30:40.196Z,11.30
2023-11-13T14:33:49.527Z,11.26
2023-11-13T14:36:59.785Z,11.21
2023-11-13T14:40:11.005Z,11.19
2023-11-13T14:43:21.455Z,11.11
2023-11-13T14:46:31.215Z,11.04
2023-11-13T14:49:39.803Z,11.05
2023-11-13T14:52:52.018Z,11.04
2023-11-13T14:56:00.533Z,11.00
2023-11-13T14:59:11.635Z,11.03
2023-11-13T15:02:20.201Z,11.01
2023-11-13T15:05:28.715Z,11.01
2023-11-13T15:08:38.644Z,11.06
2023-11-13T15:11:48.683Z,11.15
2023-11-13T15:15:01.338Z,11.19
2023-11-13T15:18:10.145Z,11.17
2023-11-13T15:21:19.300Z,11.18
2023-11-13T15:24:29.464Z,11.30
2023-11-13T15:27:38.507Z,11.19
2023-11-13T15:30:48.109Z,11.19
2023-11-13T15:33:56.654Z,11.25
2023-11-13T15:37:06.383Z,11.32
2023-11-13T15:40:17.454Z,11.21
2023-11-13T15:43:26.068Z,11.14
2023-11-13T15:46:34.621Z,11.23
2023-11-13T15:49:43.285Z,11.09
2023-11-13T15:52:52.060Z,11.02
2023-11-13T15:56:02.652Z,11.05
2023-11-13T15:59:11.206Z,11.04
2023-11-13T16:02:19.877Z,10.99
2023-11-13T16:05:28.668Z,11.12
2023-11-13T16:08:37.366Z,11.18
2023-11-13T16:11:47.488Z,11.15
2023-11-13T16:14:57.673Z,11.19
2023-11-13T16:18:06.480Z,11.12
2023-11-13T16:21:18.524Z,11.18
2023-11-13T16:24:27.294Z,11.25
2023-11-13T16:27:38.980Z,11.14
2023-11-13T16:30:47.641Z,11.15
2023-11-13T16:33:56.407Z,11.20
2023-11-13T16:37:05.258Z,11.13
2023-11-13T16:40:15.371Z,11.16
2023-11-13T16:43:25.530Z,11.13
2023-11-13T16:46:35.165Z,11.16
2023-11-13T16:49:44.695Z,11.14
2023-11-13T16:52:54.347Z,11.13
2023-11-13T16:56:03.417Z,11.20
2023-11-13T16:59:13.259Z,11.24
2023-11-13T17:02:23.000Z,11.20
2023-11-13T17:05:34.715Z,11.28
2023-11-13T17:08:43.786Z,11.39
2023-11-13T17:11:53.221Z,11.41
2023-11-13T17:15:03.109Z,11.56
2023-11-13T17:18:12.522Z,11.43
2023-11-13T17:21:21.806Z,11.54
2023-11-13T17:24:30.811Z,11.66
2023-11-13T17:27:40.211Z,11.61
2023-11-13T17:30:50.207Z,11.73
2023-11-13T17:33:58.741Z,11.79
2023-11-13T17:37:07.388Z,11.80
2023-11-13T17:40:18.360Z,11.77
2023-11-13T17:43:27.473Z,11.92
2023-11-13T17:46:38.324Z,12.04
2023-11-13T17:49:47.962Z,12.03
2023-11-13T17:52:56.585Z,12.13
2023-11-13T17:56:06.353Z,12.10
2023-11-13T17:59:15.423Z,12.10
2023-11-13T18:02:26.491Z,12.02
2023-11-13T18:05:35.145Z,11.95
2023-11-13T18:08:43.704Z,11.94
2023-11-13T18:11:53.295Z,11.92
2023-11-13T18:15:02.898Z,11.99
2023-11-13T18:18:13.212Z,11.99
2023-11-13T18:21:21.813Z,11.98
2023-11-13T18:24:30.377Z,11.95
2023-11-13T18:27:39.253Z,11.92
2023-11-13T18:30:49.479Z,12.01
2023-11-13T18:34:00.557Z,12.05
2023-11-13T18:37:09.045Z,12.12
2023-11-13T18:40:18.477Z,12.29
2023-11-13T18:43:27.367Z,12.46
2023-11-13T18:46:35.989Z,12.54
2023-11-13T18:49:47.015Z,12.63
2023-11-13T18:52:55.945Z,12.71
2023-11-13T18:56:04.691Z,12.87
2023-11-13T18:59:17.763Z,12.97
2023-11-13T19:02:27.849Z,12.93
2023-11-13T19:05:37.986Z,13.11
2023-11-13T19:08:46.783Z,13.15
2023-11-13T19:11:56.358Z,13.28
2023-11-13T19:15:05.388Z,13.27
2023-11-13T19:18:14.360Z,13.31
2023-11-13T19:21:26.953Z,13.38
2023-11-13T19:24:36.026Z,13.31
2023-11-13T19:27:45.415Z,13.32
2023-11-13T19:30:55.407Z,13.43
2023-11-13T19:34:05.236Z,13.63
2023-11-13T19:37:15.641Z,13.61
2023-11-13T19:40:24.792Z,13.61
2023-11-13T19:43:33.964Z,13.58
2023-11-13T19:46:43.569Z,13.69
2023-11-13T19:49:53.086Z,13.73
2023-11-13T19:53:04.225Z,13.74
2023-11-13T19:56:12.976Z,13.79
2023-11-13T19:59:21.726Z,13.74
2023-11-13T20:02:30.804Z,13.82
2023-11-13T20:05:39.737Z,13.77
2023-11-13T20:08:50.448Z,13.75
2023-11-13T20:12:00.178Z,13.73
2023-11-13T20:15:10.067Z,13.82
2023-11-13T20:18:29.699Z,13.89
2023-11-13T20:21:44.989Z,13.97
2023-11-13T20:24:55.168Z,13.88
2023-11-13T20:28:03.747Z,13.95
2023-11-13T20:31:14.713Z,13.81
2023-11-13T20:34:23.648Z,13.86
2023-11-13T20:37:32.220Z,14.00
2023-11-13T20:40:42.299Z,14.00
2023-11-13T20:43:52.363Z,13.98
2023-11-13T20:47:01.053Z,14.00
2023-11-13T20:50:12.607Z,14.07
2023-11-13T20:53:23.469Z,14.04
2023-11-13T20:56:33.649Z,14.01
2023-11-13T20:59:42.369Z,14.05
2023-11-13T21:02:51.280Z,14.13
2023-11-13T21:06:07.441Z,14.17
2023-11-13T21:09:17.062Z,14.08
2023-11-13T21:12:27.128Z,14.16
2023-11-13T21:15:35.786Z,14.11
2023-11-13T21:18:44.903Z,14.12
2023-11-13T21:21:54.432Z,14.24
2023-11-13T21:25:05.687Z,14.23
2023-11-13T21:28:15.866Z,14.08
2023-11-13T21:31:25.159Z,14.00
2023-11-13T21:34:34.298Z,13.85
2023-11-13T21:37:45.369Z,13.80
2023-11-13T21:40:54.194Z,13.70
2023-11-13T21:44:05.049Z,13.53
2023-11-13T21:47:13.629Z,13.41
2023-11-13T21:50:22.328Z,13.35
2023-11-13T21:53:31.172Z,13.32
2023-11-13T21:56:39.898Z,13.40
2023-11-13T21:59:49.971Z,13.40
2023-11-13T22:02:58.954Z,13.29
2023-11-13T22:06:11.388Z,13.48
2023-11-13T22:09:21.625Z,13.59
2023-11-13T22:12:33.775Z,13.76
2023-11-13T22:15:44.024Z,13.79
2023-11-13T22:18:52.562Z,13.97
2023-11-13T22:22:01.217Z,13.90
2023-11-13T22:25:10.582Z,14.03
2023-11-13T22:28:19.339Z,13.98
2023-11-13T22:31:30.550Z,14.01
2023-11-13T22:34:39.503Z,14.13
2023-11-13T22:37:48.356Z,14.22
2023-11-13T22:40:57.534Z,14.19
2023-11-13T22:44:07.697Z,14.10
2023-11-13T22:47:17.762Z,13.98
2023-11-13T22:50:26.606Z,13.70
2023-11-13T22:53:36.333Z,13.36
2023-11-13T22:56:45.979Z,13.20
2023-11-13T22:59:54.834Z,13.23
2023-11-13T23:03:05.588Z,13.19
2023-11-13T23:06:14.182Z,13.11
2023-11-13T23:09:22.910Z,13.14
2023-11-13T23:12:32.449Z,13.05
2023-11-13T23:15:44.106Z,13.03
2023-11-13T23:18:55.719Z,12.93
2023-11-13T23:22:06.694Z,12.97
2023-11-13T23:25:15.307Z,13.06
2023-11-13T23:28:24.629Z,13.08
2023-11-13T23:31:34.484Z,13.14
2023-11-13T23:34:44.561Z,13.16
2023-11-13T23:37:53.328Z,13.23
2023-11-13T23:41:02.809Z,13.20
2023-11-13T23:44:12.785Z,13.15
2023-11-13T23:47:21.480Z,13.28
2023-11-13T23:50:31.547Z,13.26
2023-11-13T23:53:40.237Z,13.27
2023-11-13T23:56:48.842Z,13.27
2023-11-13T23:59:57.378Z,13.15
